KDNV/DNV METAR and TAF weather

Enter ICAO airport designator
Station Type Date Time Source
KDNV METAR 2018/10/21 03:35 UTC NOAA

KDNV 210335Z AUTO 30007KT 10SM CLR 00/M04 A3030 RMK AO2 T00001040


Station Type Date Time Source
KDNV Decoded METAR 2018/10/21 03:35 UTC NOAA

Danville, Vermilion County Airport, IL, United States (KDNV) 40-11-58N 087-35-44W
Oct 20, 2018 - 11:35 PM EDT / 2018.10.21 0335 UTC
Wind: from the WNW (300 degrees) at 8 MPH (7 KT):0
Visibility: 10 mile(s):0
Sky conditions: clear
Temperature: 32.0 F (0.0 C)
Windchill: 24 F (-4 C):1
Dew Point: 24.8 F (-4.0 C)
Relative Humidity: 74%
Pressure (altimeter): 30.3 in. Hg (1026 hPa)
ob: KDNV 210335Z AUTO 30007KT 10SM CLR 00/M04 A3030 RMK AO2 T00001040
cycle: 3

Station Type Date Time Source
KDNV TAF UTC NOAA

Error!


Example: see airport list